Terminal Aerodrome Forecast
Issued by NWS

Home | Current Version | Previous Version | Text Only | Print | Product List | Glossary On
Versions: 1 2 3 4 5 6 7 8 9 10 11 12 13 14 15 16
000
FTUS42 KMLB 011700 CCA
TAFTIX
TAF COR
KTIX 011757Z 0118/0218 14012G18KT P6SM SCT040
      TEMPO 0118/0121 BKN040
     FM020000 17007KT P6SM SCT040 BKN200
     FM020600 18008KT P6SM SCT020 BKN120 WS010/20032KT
     FM021200 20012G18KT P6SM VCSH SCT025 BKN040=

USA.gov is the U.S. government's official web portal to all federal, state and local government web resources and services.